sensor_id;sensor_type;location;lat;lon;timestamp;P1;durP1;ratioP1;P2;durP2;ratioP2
67500;SDS011;54349;52.528;19.760;2022-12-18T00:00:07;8.70;;;5.70;;
67500;SDS011;54349;52.528;19.760;2022-12-18T00:03:04;9.60;;;6.10;;
67500;SDS011;54349;52.528;19.760;2022-12-18T00:05:32;10.60;;;6.30;;
67500;SDS011;54349;52.528;19.760;2022-12-18T00:08:00;10.60;;;6.60;;
67500;SDS011;54349;52.528;19.760;2022-12-18T00:10:29;10.70;;;7.00;;
67500;SDS011;54349;52.528;19.760;2022-12-18T00:12:57;10.30;;;6.50;;
67500;SDS011;54349;52.528;19.760;2022-12-18T00:15:25;10.80;;;6.50;;
67500;SDS011;54349;52.528;19.760;2022-12-18T00:17:52;10.20;;;6.40;;
67500;SDS011;54349;52.528;19.760;2022-12-18T00:20:21;11.90;;;6.50;;
67500;SDS011;54349;52.528;19.760;2022-12-18T00:22:53;10.60;;;6.60;;
67500;SDS011;54349;52.528;19.760;2022-12-18T00:25:23;11.00;;;6.80;;
67500;SDS011;54349;52.528;19.760;2022-12-18T00:27:51;10.40;;;6.60;;
67500;SDS011;54349;52.528;19.760;2022-12-18T00:30:19;11.20;;;7.10;;
67500;SDS011;54349;52.528;19.760;2022-12-18T00:32:47;11.80;;;7.20;;
67500;SDS011;54349;52.528;19.760;2022-12-18T00:35:15;12.20;;;6.60;;
67500;SDS011;54349;52.528;19.760;2022-12-18T00:37:44;12.00;;;7.40;;
67500;SDS011;54349;52.528;19.760;2022-12-18T00:40:12;12.30;;;6.90;;
67500;SDS011;54349;52.528;19.760;2022-12-18T00:42:40;10.70;;;6.60;;
67500;SDS011;54349;52.528;19.760;2022-12-18T00:45:24;10.80;;;6.60;;
67500;SDS011;54349;52.528;19.760;2022-12-18T00:47:55;11.30;;;7.10;;
67500;SDS011;54349;52.528;19.760;2022-12-18T00:50:24;10.80;;;6.70;;
67500;SDS011;54349;52.528;19.760;2022-12-18T00:52:53;10.70;;;6.60;;
67500;SDS011;54349;52.528;19.760;2022-12-18T00:55:22;11.00;;;6.90;;
67500;SDS011;54349;52.528;19.760;2022-12-18T00:57:51;11.60;;;7.10;;
67500;SDS011;54349;52.528;19.760;2022-12-18T01:00:21;12.30;;;7.60;;
67500;SDS011;54349;52.528;19.760;2022-12-18T01:02:49;11.70;;;7.20;;
67500;SDS011;54349;52.528;19.760;2022-12-18T01:05:18;13.70;;;7.80;;
67500;SDS011;54349;52.528;19.760;2022-12-18T01:07:46;13.30;;;7.90;;
67500;SDS011;54349;52.528;19.760;2022-12-18T01:10:14;13.40;;;7.70;;
67500;SDS011;54349;52.528;19.760;2022-12-18T01:12:42;11.70;;;7.70;;
67500;SDS011;54349;52.528;19.760;2022-12-18T01:15:13;13.60;;;7.60;;
67500;SDS011;54349;52.528;19.760;2022-12-18T01:17:42;12.90;;;7.40;;
67500;SDS011;54349;52.528;19.760;2022-12-18T01:20:11;12.80;;;7.40;;
67500;SDS011;54349;52.528;19.760;2022-12-18T01:22:40;13.30;;;8.20;;
67500;SDS011;54349;52.528;19.760;2022-12-18T01:25:08;12.10;;;8.00;;
67500;SDS011;54349;52.528;19.760;2022-12-18T01:27:37;13.60;;;7.70;;
67500;SDS011;54349;52.528;19.760;2022-12-18T01:30:05;13.00;;;8.00;;
67500;SDS011;54349;52.528;19.760;2022-12-18T01:32:34;15.00;;;8.20;;
67500;SDS011;54349;52.528;19.760;2022-12-18T01:35:02;13.20;;;7.80;;
67500;SDS011;54349;52.528;19.760;2022-12-18T01:37:31;14.80;;;8.80;;
67500;SDS011;54349;52.528;19.760;2022-12-18T01:39:59;13.40;;;8.20;;
67500;SDS011;54349;52.528;19.760;2022-12-18T01:42:27;13.80;;;8.40;;
67500;SDS011;54349;52.528;19.760;2022-12-18T01:45:05;12.80;;;8.00;;
67500;SDS011;54349;52.528;19.760;2022-12-18T01:47:47;13.50;;;8.40;;
67500;SDS011;54349;52.528;19.760;2022-12-18T01:50:21;13.80;;;7.90;;
67500;SDS011;54349;52.528;19.760;2022-12-18T01:55:57;14.00;;;8.80;;
67500;SDS011;54349;52.528;19.760;2022-12-18T02:01:08;14.70;;;8.30;;
67500;SDS011;54349;52.528;19.760;2022-12-18T02:03:37;13.10;;;8.40;;
67500;SDS011;54349;52.528;19.760;2022-12-18T02:06:16;12.90;;;8.50;;
67500;SDS011;54349;52.528;19.760;2022-12-18T02:09:10;14.20;;;8.60;;
67500;SDS011;54349;52.528;19.760;2022-12-18T02:17:42;14.30;;;8.80;;
67500;SDS011;54349;52.528;19.760;2022-12-18T02:29:09;14.60;;;8.80;;
67500;SDS011;54349;52.528;19.760;2022-12-18T02:31:46;15.50;;;9.20;;
67500;SDS011;54349;52.528;19.760;2022-12-18T02:34:21;15.20;;;8.90;;
67500;SDS011;54349;52.528;19.760;2022-12-18T02:36:56;14.80;;;8.80;;
67500;SDS011;54349;52.528;19.760;2022-12-18T02:39:28;15.70;;;9.70;;
67500;SDS011;54349;52.528;19.760;2022-12-18T02:42:02;14.90;;;8.80;;
67500;SDS011;54349;52.528;19.760;2022-12-18T02:44:43;14.10;;;9.10;;
67500;SDS011;54349;52.528;19.760;2022-12-18T02:47:17;15.20;;;9.00;;
67500;SDS011;54349;52.528;19.760;2022-12-18T02:53:10;14.30;;;8.80;;
67500;SDS011;54349;52.528;19.760;2022-12-18T02:58:59;10.90;;;8.70;;
67500;SDS011;54349;52.528;19.760;2022-12-18T03:01:56;15.10;;;9.10;;
67500;SDS011;54349;52.528;19.760;2022-12-18T03:04:43;14.70;;;9.10;;
67500;SDS011;54349;52.528;19.760;2022-12-18T03:07:37;14.20;;;9.20;;
67500;SDS011;54349;52.528;19.760;2022-12-18T03:10:18;15.50;;;9.30;;
67500;SDS011;54349;52.528;19.760;2022-12-18T03:12:59;15.00;;;9.30;;
67500;SDS011;54349;52.528;19.760;2022-12-18T03:15:53;15.10;;;9.40;;
67500;SDS011;54349;52.528;19.760;2022-12-18T03:18:33;15.10;;;9.00;;
67500;SDS011;54349;52.528;19.760;2022-12-18T03:21:08;16.00;;;9.40;;
67500;SDS011;54349;52.528;19.760;2022-12-18T03:23:44;15.30;;;9.00;;
67500;SDS011;54349;52.528;19.760;2022-12-18T03:26:19;15.30;;;9.00;;
67500;SDS011;54349;52.528;19.760;2022-12-18T03:28:55;15.10;;;9.20;;
67500;SDS011;54349;52.528;19.760;2022-12-18T03:31:29;14.20;;;8.90;;
67500;SDS011;54349;52.528;19.760;2022-12-18T03:34:13;14.20;;;9.20;;
67500;SDS011;54349;52.528;19.760;2022-12-18T03:36:47;13.40;;;9.10;;
67500;SDS011;54349;52.528;19.760;2022-12-18T03:39:15;16.10;;;9.20;;
67500;SDS011;54349;52.528;19.760;2022-12-18T03:41:55;15.70;;;9.50;;
67500;SDS011;54349;52.528;19.760;2022-12-18T03:44:56;15.80;;;9.40;;
67500;SDS011;54349;52.528;19.760;2022-12-18T03:47:33;14.60;;;9.80;;
67500;SDS011;54349;52.528;19.760;2022-12-18T03:50:45;15.00;;;9.40;;
67500;SDS011;54349;52.528;19.760;2022-12-18T03:53:34;16.30;;;9.80;;
67500;SDS011;54349;52.528;19.760;2022-12-18T03:56:09;15.20;;;9.00;;
67500;SDS011;54349;52.528;19.760;2022-12-18T03:58:40;14.40;;;8.40;;
67500;SDS011;54349;52.528;19.760;2022-12-18T04:01:20;15.10;;;9.00;;
67500;SDS011;54349;52.528;19.760;2022-12-18T04:03:51;15.30;;;9.70;;
67500;SDS011;54349;52.528;19.760;2022-12-18T04:06:21;15.60;;;9.80;;
67500;SDS011;54349;52.528;19.760;2022-12-18T04:08:50;15.70;;;9.50;;
67500;SDS011;54349;52.528;19.760;2022-12-18T04:11:20;14.80;;;9.50;;
67500;SDS011;54349;52.528;19.760;2022-12-18T04:13:48;15.10;;;9.10;;
67500;SDS011;54349;52.528;19.760;2022-12-18T04:16:22;13.90;;;9.30;;
67500;SDS011;54349;52.528;19.760;2022-12-18T04:18:53;15.80;;;9.30;;
67500;SDS011;54349;52.528;19.760;2022-12-18T04:21:22;16.40;;;9.90;;
67500;SDS011;54349;52.528;19.760;2022-12-18T04:23:50;15.50;;;9.50;;
67500;SDS011;54349;52.528;19.760;2022-12-18T04:26:20;15.40;;;9.40;;
67500;SDS011;54349;52.528;19.760;2022-12-18T04:29:07;17.00;;;9.30;;
67500;SDS011;54349;52.528;19.760;2022-12-18T04:31:36;15.70;;;9.30;;
67500;SDS011;54349;52.528;19.760;2022-12-18T04:34:05;14.80;;;9.60;;
67500;SDS011;54349;52.528;19.760;2022-12-18T04:36:38;15.30;;;9.10;;
67500;SDS011;54349;52.528;19.760;2022-12-18T04:39:06;15.80;;;9.60;;
67500;SDS011;54349;52.528;19.760;2022-12-18T04:41:34;15.10;;;9.50;;
67500;SDS011;54349;52.528;19.760;2022-12-18T04:44:03;17.50;;;10.40;;
67500;SDS011;54349;52.528;19.760;2022-12-18T04:46:32;16.30;;;10.30;;
67500;SDS011;54349;52.528;19.760;2022-12-18T04:49:00;15.80;;;9.50;;
67500;SDS011;54349;52.528;19.760;2022-12-18T04:51:28;14.40;;;8.80;;
67500;SDS011;54349;52.528;19.760;2022-12-18T04:53:56;15.90;;;9.80;;
67500;SDS011;54349;52.528;19.760;2022-12-18T04:56:24;16.20;;;10.20;;
67500;SDS011;54349;52.528;19.760;2022-12-18T04:58:52;16.30;;;10.10;;
67500;SDS011;54349;52.528;19.760;2022-12-18T05:01:21;16.30;;;9.50;;
67500;SDS011;54349;52.528;19.760;2022-12-18T05:03:51;15.80;;;9.80;;
67500;SDS011;54349;52.528;19.760;2022-12-18T05:06:19;15.90;;;9.30;;
67500;SDS011;54349;52.528;19.760;2022-12-18T05:08:47;16.50;;;10.60;;
67500;SDS011;54349;52.528;19.760;2022-12-18T05:11:16;15.40;;;9.60;;
67500;SDS011;54349;52.528;19.760;2022-12-18T05:13:45;15.90;;;9.80;;
67500;SDS011;54349;52.528;19.760;2022-12-18T05:16:13;15.60;;;9.90;;
67500;SDS011;54349;52.528;19.760;2022-12-18T05:18:42;14.90;;;9.70;;
67500;SDS011;54349;52.528;19.760;2022-12-18T05:21:10;16.30;;;9.70;;
67500;SDS011;54349;52.528;19.760;2022-12-18T05:23:38;15.90;;;9.80;;
67500;SDS011;54349;52.528;19.760;2022-12-18T05:26:14;14.40;;;9.50;;
67500;SDS011;54349;52.528;19.760;2022-12-18T05:28:45;16.20;;;9.80;;
67500;SDS011;54349;52.528;19.760;2022-12-18T05:31:14;16.20;;;10.00;;
67500;SDS011;54349;52.528;19.760;2022-12-18T05:33:42;14.60;;;9.90;;
67500;SDS011;54349;52.528;19.760;2022-12-18T05:36:11;14.20;;;9.30;;
67500;SDS011;54349;52.528;19.760;2022-12-18T05:38:39;16.20;;;9.80;;
67500;SDS011;54349;52.528;19.760;2022-12-18T05:41:08;15.60;;;10.00;;
67500;SDS011;54349;52.528;19.760;2022-12-18T05:43:38;16.00;;;9.50;;
67500;SDS011;54349;52.528;19.760;2022-12-18T05:46:12;15.40;;;9.90;;
67500;SDS011;54349;52.528;19.760;2022-12-18T05:48:43;16.50;;;10.30;;
67500;SDS011;54349;52.528;19.760;2022-12-18T05:51:14;13.40;;;9.20;;
67500;SDS011;54349;52.528;19.760;2022-12-18T05:53:45;13.70;;;9.50;;
67500;SDS011;54349;52.528;19.760;2022-12-18T05:56:17;16.50;;;10.10;;
67500;SDS011;54349;52.528;19.760;2022-12-18T05:58:47;18.00;;;10.50;;
67500;SDS011;54349;52.528;19.760;2022-12-18T06:01:23;16.40;;;10.00;;
67500;SDS011;54349;52.528;19.760;2022-12-18T06:03:52;17.70;;;10.70;;
67500;SDS011;54349;52.528;19.760;2022-12-18T06:06:24;15.80;;;10.10;;
67500;SDS011;54349;52.528;19.760;2022-12-18T06:08:55;18.40;;;10.70;;
67500;SDS011;54349;52.528;19.760;2022-12-18T06:11:26;14.00;;;9.40;;
67500;SDS011;54349;52.528;19.760;2022-12-18T06:13:56;16.80;;;10.30;;
67500;SDS011;54349;52.528;19.760;2022-12-18T06:16:27;16.70;;;10.10;;
67500;SDS011;54349;52.528;19.760;2022-12-18T06:18:58;17.00;;;10.30;;
67500;SDS011;54349;52.528;19.760;2022-12-18T06:21:29;16.80;;;10.40;;
67500;SDS011;54349;52.528;19.760;2022-12-18T06:23:59;15.40;;;9.80;;
67500;SDS011;54349;52.528;19.760;2022-12-18T06:26:28;16.00;;;9.80;;
67500;SDS011;54349;52.528;19.760;2022-12-18T06:28:56;17.50;;;10.50;;
67500;SDS011;54349;52.528;19.760;2022-12-18T06:31:25;16.70;;;10.50;;
67500;SDS011;54349;52.528;19.760;2022-12-18T06:33:54;16.40;;;10.50;;
67500;SDS011;54349;52.528;19.760;2022-12-18T06:36:22;17.90;;;10.30;;
67500;SDS011;54349;52.528;19.760;2022-12-18T06:38:50;16.50;;;10.10;;
67500;SDS011;54349;52.528;19.760;2022-12-18T06:41:20;15.90;;;10.40;;
67500;SDS011;54349;52.528;19.760;2022-12-18T06:43:49;17.50;;;10.20;;
67500;SDS011;54349;52.528;19.760;2022-12-18T06:46:21;16.70;;;10.20;;
67500;SDS011;54349;52.528;19.760;2022-12-18T06:48:50;16.40;;;10.20;;
67500;SDS011;54349;52.528;19.760;2022-12-18T06:51:22;16.10;;;10.10;;
67500;SDS011;54349;52.528;19.760;2022-12-18T06:53:51;14.80;;;9.70;;
67500;SDS011;54349;52.528;19.760;2022-12-18T06:56:19;14.90;;;9.90;;
67500;SDS011;54349;52.528;19.760;2022-12-18T06:58:51;16.00;;;9.70;;
67500;SDS011;54349;52.528;19.760;2022-12-18T07:01:20;17.00;;;10.20;;
67500;SDS011;54349;52.528;19.760;2022-12-18T07:03:54;15.40;;;10.40;;
67500;SDS011;54349;52.528;19.760;2022-12-18T07:06:25;16.00;;;10.00;;
67500;SDS011;54349;52.528;19.760;2022-12-18T07:08:56;16.80;;;9.80;;
67500;SDS011;54349;52.528;19.760;2022-12-18T07:11:24;16.90;;;10.10;;
67500;SDS011;54349;52.528;19.760;2022-12-18T07:13:52;16.10;;;9.60;;
67500;SDS011;54349;52.528;19.760;2022-12-18T07:16:21;15.40;;;9.00;;
67500;SDS011;54349;52.528;19.760;2022-12-18T07:18:54;15.40;;;9.40;;
67500;SDS011;54349;52.528;19.760;2022-12-18T07:21:24;13.70;;;8.50;;
67500;SDS011;54349;52.528;19.760;2022-12-18T07:23:53;13.60;;;8.80;;
67500;SDS011;54349;52.528;19.760;2022-12-18T07:26:22;13.90;;;8.70;;
67500;SDS011;54349;52.528;19.760;2022-12-18T07:28:54;14.30;;;9.30;;
67500;SDS011;54349;52.528;19.760;2022-12-18T07:31:25;14.70;;;9.30;;
67500;SDS011;54349;52.528;19.760;2022-12-18T07:33:54;15.20;;;8.90;;
67500;SDS011;54349;52.528;19.760;2022-12-18T07:36:23;14.20;;;8.90;;
67500;SDS011;54349;52.528;19.760;2022-12-18T07:38:51;15.40;;;9.40;;
67500;SDS011;54349;52.528;19.760;2022-12-18T07:41:22;15.50;;;9.70;;
67500;SDS011;54349;52.528;19.760;2022-12-18T07:43:51;16.40;;;9.80;;
67500;SDS011;54349;52.528;19.760;2022-12-18T07:46:20;14.50;;;9.20;;
67500;SDS011;54349;52.528;19.760;2022-12-18T07:48:48;17.00;;;9.40;;
67500;SDS011;54349;52.528;19.760;2022-12-18T07:51:18;14.50;;;9.20;;
67500;SDS011;54349;52.528;19.760;2022-12-18T07:53:47;15.30;;;9.40;;
67500;SDS011;54349;52.528;19.760;2022-12-18T07:56:20;14.10;;;9.50;;
67500;SDS011;54349;52.528;19.760;2022-12-18T07:58:55;13.90;;;9.00;;
67500;SDS011;54349;52.528;19.760;2022-12-18T08:01:24;15.20;;;9.10;;
67500;SDS011;54349;52.528;19.760;2022-12-18T08:03:54;15.60;;;9.40;;
67500;SDS011;54349;52.528;19.760;2022-12-18T08:06:22;16.90;;;9.80;;
67500;SDS011;54349;52.528;19.760;2022-12-18T08:08:55;15.90;;;9.90;;
67500;SDS011;54349;52.528;19.760;2022-12-18T08:11:26;16.10;;;9.50;;
67500;SDS011;54349;52.528;19.760;2022-12-18T08:13:55;15.30;;;9.30;;
67500;SDS011;54349;52.528;19.760;2022-12-18T08:16:24;15.70;;;9.40;;
67500;SDS011;54349;52.528;19.760;2022-12-18T08:18:53;16.80;;;9.60;;
67500;SDS011;54349;52.528;19.760;2022-12-18T08:21:27;15.50;;;9.40;;
67500;SDS011;54349;52.528;19.760;2022-12-18T08:24:00;16.20;;;9.70;;
67500;SDS011;54349;52.528;19.760;2022-12-18T08:26:30;15.90;;;9.90;;
67500;SDS011;54349;52.528;19.760;2022-12-18T08:29:00;15.70;;;9.30;;
67500;SDS011;54349;52.528;19.760;2022-12-18T08:31:29;15.20;;;9.60;;
67500;SDS011;54349;52.528;19.760;2022-12-18T08:33:59;15.10;;;9.60;;
67500;SDS011;54349;52.528;19.760;2022-12-18T08:36:27;14.50;;;9.50;;
67500;SDS011;54349;52.528;19.760;2022-12-18T08:38:54;15.90;;;9.50;;
67500;SDS011;54349;52.528;19.760;2022-12-18T08:41:25;15.50;;;9.00;;
67500;SDS011;54349;52.528;19.760;2022-12-18T08:43:53;14.90;;;9.40;;
67500;SDS011;54349;52.528;19.760;2022-12-18T08:46:42;15.60;;;9.80;;
67500;SDS011;54349;52.528;19.760;2022-12-18T08:49:11;14.80;;;9.70;;
67500;SDS011;54349;52.528;19.760;2022-12-18T08:51:40;14.90;;;9.40;;
67500;SDS011;54349;52.528;19.760;2022-12-18T08:54:10;16.10;;;9.50;;
67500;SDS011;54349;52.528;19.760;2022-12-18T08:56:41;16.60;;;9.70;;
67500;SDS011;54349;52.528;19.760;2022-12-18T08:59:09;15.70;;;9.90;;
67500;SDS011;54349;52.528;19.760;2022-12-18T09:01:46;14.30;;;9.50;;
67500;SDS011;54349;52.528;19.760;2022-12-18T09:04:15;14.20;;;9.10;;
67500;SDS011;54349;52.528;19.760;2022-12-18T09:06:43;14.70;;;9.30;;
67500;SDS011;54349;52.528;19.760;2022-12-18T09:09:11;15.70;;;10.00;;
67500;SDS011;54349;52.528;19.760;2022-12-18T09:11:39;15.40;;;9.90;;
67500;SDS011;54349;52.528;19.760;2022-12-18T09:14:08;15.80;;;9.30;;
67500;SDS011;54349;52.528;19.760;2022-12-18T09:16:37;15.30;;;9.70;;
67500;SDS011;54349;52.528;19.760;2022-12-18T09:19:06;15.60;;;9.90;;
67500;SDS011;54349;52.528;19.760;2022-12-18T09:21:37;14.20;;;8.90;;
67500;SDS011;54349;52.528;19.760;2022-12-18T09:24:12;14.00;;;9.30;;
67500;SDS011;54349;52.528;19.760;2022-12-18T09:26:42;15.40;;;9.30;;
67500;SDS011;54349;52.528;19.760;2022-12-18T09:29:15;14.20;;;9.40;;
67500;SDS011;54349;52.528;19.760;2022-12-18T09:31:46;15.20;;;9.60;;
67500;SDS011;54349;52.528;19.760;2022-12-18T09:34:15;15.50;;;9.60;;
67500;SDS011;54349;52.528;19.760;2022-12-18T09:36:44;14.40;;;9.40;;
67500;SDS011;54349;52.528;19.760;2022-12-18T09:39:14;14.40;;;9.80;;
67500;SDS011;54349;52.528;19.760;2022-12-18T09:41:47;16.60;;;9.50;;
67500;SDS011;54349;52.528;19.760;2022-12-18T09:44:41;14.60;;;9.50;;
67500;SDS011;54349;52.528;19.760;2022-12-18T09:49:57;14.50;;;9.10;;
67500;SDS011;54349;52.528;19.760;2022-12-18T09:52:40;13.80;;;8.90;;
67500;SDS011;54349;52.528;19.760;2022-12-18T09:55:34;17.10;;;9.50;;
67500;SDS011;54349;52.528;19.760;2022-12-18T10:01:27;14.50;;;9.60;;
67500;SDS011;54349;52.528;19.760;2022-12-18T10:04:10;15.80;;;9.30;;
67500;SDS011;54349;52.528;19.760;2022-12-18T10:12:02;14.70;;;9.50;;
67500;SDS011;54349;52.528;19.760;2022-12-18T10:14:40;12.70;;;8.80;;
67500;SDS011;54349;52.528;19.760;2022-12-18T10:20:44;14.80;;;9.00;;
67500;SDS011;54349;52.528;19.760;2022-12-18T10:26:19;15.10;;;9.70;;
67500;SDS011;54349;52.528;19.760;2022-12-18T10:28:49;13.90;;;8.80;;
67500;SDS011;54349;52.528;19.760;2022-12-18T10:31:21;14.80;;;9.60;;
67500;SDS011;54349;52.528;19.760;2022-12-18T10:33:53;13.90;;;9.20;;
67500;SDS011;54349;52.528;19.760;2022-12-18T10:36:24;14.40;;;9.50;;
67500;SDS011;54349;52.528;19.760;2022-12-18T10:38:52;14.00;;;9.40;;
67500;SDS011;54349;52.528;19.760;2022-12-18T10:46:47;13.50;;;8.80;;
67500;SDS011;54349;52.528;19.760;2022-12-18T10:49:24;14.10;;;8.80;;
67500;SDS011;54349;52.528;19.760;2022-12-18T10:52:24;15.20;;;9.50;;
67500;SDS011;54349;52.528;19.760;2022-12-18T10:55:02;15.90;;;9.70;;
67500;SDS011;54349;52.528;19.760;2022-12-18T10:57:38;15.00;;;9.50;;
67500;SDS011;54349;52.528;19.760;2022-12-18T11:00:29;14.80;;;8.90;;
67500;SDS011;54349;52.528;19.760;2022-12-18T11:02:58;14.10;;;8.60;;
67500;SDS011;54349;52.528;19.760;2022-12-18T11:05:30;14.60;;;9.10;;
67500;SDS011;54349;52.528;19.760;2022-12-18T11:08:01;14.60;;;9.10;;
67500;SDS011;54349;52.528;19.760;2022-12-18T11:10:32;14.00;;;9.10;;
67500;SDS011;54349;52.528;19.760;2022-12-18T11:13:16;15.40;;;8.90;;
67500;SDS011;54349;52.528;19.760;2022-12-18T11:15:48;14.40;;;9.40;;
67500;SDS011;54349;52.528;19.760;2022-12-18T11:18:25;13.70;;;9.10;;
67500;SDS011;54349;52.528;19.760;2022-12-18T11:21:09;15.00;;;9.80;;
67500;SDS011;54349;52.528;19.760;2022-12-18T11:23:50;15.90;;;9.30;;
67500;SDS011;54349;52.528;19.760;2022-12-18T11:26:20;14.10;;;8.60;;
67500;SDS011;54349;52.528;19.760;2022-12-18T11:29:09;16.60;;;9.80;;
67500;SDS011;54349;52.528;19.760;2022-12-18T11:31:44;16.40;;;9.50;;
67500;SDS011;54349;52.528;19.760;2022-12-18T11:34:23;17.40;;;10.30;;
67500;SDS011;54349;52.528;19.760;2022-12-18T11:36:58;17.90;;;10.30;;
67500;SDS011;54349;52.528;19.760;2022-12-18T11:39:31;15.50;;;9.60;;
67500;SDS011;54349;52.528;19.760;2022-12-18T11:42:20;14.90;;;9.70;;
67500;SDS011;54349;52.528;19.760;2022-12-18T11:44:59;17.30;;;9.50;;
67500;SDS011;54349;52.528;19.760;2022-12-18T11:47:46;15.50;;;9.70;;
67500;SDS011;54349;52.528;19.760;2022-12-18T11:50:26;17.50;;;9.90;;
67500;SDS011;54349;52.528;19.760;2022-12-18T11:53:00;14.70;;;9.70;;
67500;SDS011;54349;52.528;19.760;2022-12-18T12:01:50;15.40;;;9.10;;
67500;SDS011;54349;52.528;19.760;2022-12-18T12:07:33;17.30;;;9.40;;
67500;SDS011;54349;52.528;19.760;2022-12-18T12:13:16;13.80;;;9.20;;
67500;SDS011;54349;52.528;19.760;2022-12-18T12:24:12;13.90;;;8.80;;
67500;SDS011;54349;52.528;19.760;2022-12-18T12:27:10;13.90;;;8.90;;
67500;SDS011;54349;52.528;19.760;2022-12-18T12:30:07;13.70;;;8.90;;
67500;SDS011;54349;52.528;19.760;2022-12-18T12:40:58;13.80;;;9.00;;
67500;SDS011;54349;52.528;19.760;2022-12-18T12:43:44;13.50;;;9.00;;
67500;SDS011;54349;52.528;19.760;2022-12-18T12:46:19;15.30;;;8.70;;
67500;SDS011;54349;52.528;19.760;2022-12-18T12:48:55;13.70;;;8.50;;
67500;SDS011;54349;52.528;19.760;2022-12-18T12:51:29;14.20;;;9.20;;
67500;SDS011;54349;52.528;19.760;2022-12-18T12:54:03;12.70;;;8.50;;
67500;SDS011;54349;52.528;19.760;2022-12-18T13:02:24;14.00;;;8.60;;
67500;SDS011;54349;52.528;19.760;2022-12-18T13:10:50;14.00;;;8.70;;
67500;SDS011;54349;52.528;19.760;2022-12-18T13:16:23;14.50;;;8.90;;
67500;SDS011;54349;52.528;19.760;2022-12-18T13:18:54;12.70;;;8.40;;
67500;SDS011;54349;52.528;19.760;2022-12-18T13:21:29;12.30;;;8.20;;
67500;SDS011;54349;52.528;19.760;2022-12-18T13:24:15;14.40;;;9.20;;
67500;SDS011;54349;52.528;19.760;2022-12-18T13:26:57;14.10;;;8.50;;
67500;SDS011;54349;52.528;19.760;2022-12-18T13:29:44;13.20;;;8.60;;
67500;SDS011;54349;52.528;19.760;2022-12-18T13:32:25;12.30;;;8.10;;
67500;SDS011;54349;52.528;19.760;2022-12-18T13:37:54;13.90;;;8.50;;
67500;SDS011;54349;52.528;19.760;2022-12-18T13:51:48;14.40;;;9.00;;
67500;SDS011;54349;52.528;19.760;2022-12-18T13:54:30;15.20;;;8.60;;
67500;SDS011;54349;52.528;19.760;2022-12-18T13:57:03;13.60;;;8.60;;
67500;SDS011;54349;52.528;19.760;2022-12-18T13:59:36;15.10;;;9.10;;
67500;SDS011;54349;52.528;19.760;2022-12-18T14:02:14;15.40;;;9.10;;
67500;SDS011;54349;52.528;19.760;2022-12-18T14:04:46;14.00;;;8.60;;
67500;SDS011;54349;52.528;19.760;2022-12-18T14:07:17;13.40;;;8.40;;
67500;SDS011;54349;52.528;19.760;2022-12-18T14:09:52;14.10;;;8.80;;
67500;SDS011;54349;52.528;19.760;2022-12-18T14:12:47;13.40;;;7.90;;
67500;SDS011;54349;52.528;19.760;2022-12-18T14:15:35;13.60;;;8.30;;
67500;SDS011;54349;52.528;19.760;2022-12-18T14:21:02;13.40;;;8.60;;
67500;SDS011;54349;52.528;19.760;2022-12-18T14:26:28;14.10;;;8.90;;
67500;SDS011;54349;52.528;19.760;2022-12-18T14:29:01;14.40;;;8.70;;
67500;SDS011;54349;52.528;19.760;2022-12-18T14:32:04;13.70;;;8.30;;
67500;SDS011;54349;52.528;19.760;2022-12-18T14:34:53;13.80;;;8.30;;
67500;SDS011;54349;52.528;19.760;2022-12-18T14:37:24;13.20;;;8.20;;
67500;SDS011;54349;52.528;19.760;2022-12-18T14:40:04;14.00;;;8.50;;
67500;SDS011;54349;52.528;19.760;2022-12-18T14:42:38;14.60;;;9.00;;
67500;SDS011;54349;52.528;19.760;2022-12-18T14:45:32;14.70;;;8.80;;
67500;SDS011;54349;52.528;19.760;2022-12-18T14:48:20;13.10;;;8.20;;
67500;SDS011;54349;52.528;19.760;2022-12-18T14:51:00;13.20;;;8.10;;
67500;SDS011;54349;52.528;19.760;2022-12-18T14:53:39;11.90;;;7.90;;
67500;SDS011;54349;52.528;19.760;2022-12-18T14:59:01;12.60;;;8.40;;
67500;SDS011;54349;52.528;19.760;2022-12-18T15:01:38;13.90;;;8.20;;
67500;SDS011;54349;52.528;19.760;2022-12-18T15:04:35;13.50;;;7.80;;
67500;SDS011;54349;52.528;19.760;2022-12-18T15:07:22;12.80;;;8.10;;
67500;SDS011;54349;52.528;19.760;2022-12-18T15:10:09;13.50;;;8.30;;
67500;SDS011;54349;52.528;19.760;2022-12-18T15:13:05;13.40;;;8.50;;
67500;SDS011;54349;52.528;19.760;2022-12-18T15:18:16;13.10;;;7.90;;
67500;SDS011;54349;52.528;19.760;2022-12-18T15:20:52;14.10;;;9.00;;
67500;SDS011;54349;52.528;19.760;2022-12-18T15:26:18;14.40;;;8.90;;
67500;SDS011;54349;52.528;19.760;2022-12-18T15:28:56;13.40;;;8.50;;
67500;SDS011;54349;52.528;19.760;2022-12-18T15:31:32;13.00;;;7.90;;
67500;SDS011;54349;52.528;19.760;2022-12-18T15:36:35;14.20;;;8.70;;
67500;SDS011;54349;52.528;19.760;2022-12-18T15:39:04;13.90;;;7.90;;
67500;SDS011;54349;52.528;19.760;2022-12-18T15:41:35;14.50;;;8.00;;
67500;SDS011;54349;52.528;19.760;2022-12-18T15:44:24;13.40;;;8.20;;
67500;SDS011;54349;52.528;19.760;2022-12-18T15:46:53;13.50;;;7.90;;
67500;SDS011;54349;52.528;19.760;2022-12-18T15:49:24;13.20;;;8.20;;
67500;SDS011;54349;52.528;19.760;2022-12-18T15:51:56;14.10;;;8.30;;
67500;SDS011;54349;52.528;19.760;2022-12-18T15:54:26;12.90;;;7.90;;
67500;SDS011;54349;52.528;19.760;2022-12-18T15:57:13;13.30;;;8.40;;
67500;SDS011;54349;52.528;19.760;2022-12-18T15:59:52;12.90;;;8.20;;
67500;SDS011;54349;52.528;19.760;2022-12-18T16:02:22;13.90;;;8.40;;
67500;SDS011;54349;52.528;19.760;2022-12-18T16:04:52;13.40;;;8.30;;
67500;SDS011;54349;52.528;19.760;2022-12-18T16:07:21;14.10;;;8.60;;
67500;SDS011;54349;52.528;19.760;2022-12-18T16:09:52;15.90;;;8.40;;
67500;SDS011;54349;52.528;19.760;2022-12-18T16:12:23;12.30;;;7.60;;
67500;SDS011;54349;52.528;19.760;2022-12-18T16:14:53;13.80;;;8.10;;
67500;SDS011;54349;52.528;19.760;2022-12-18T16:17:21;14.80;;;8.90;;
67500;SDS011;54349;52.528;19.760;2022-12-18T16:19:49;14.20;;;8.10;;
67500;SDS011;54349;52.528;19.760;2022-12-18T16:22:25;14.80;;;8.40;;
67500;SDS011;54349;52.528;19.760;2022-12-18T16:24:56;13.60;;;8.10;;
67500;SDS011;54349;52.528;19.760;2022-12-18T16:27:25;13.80;;;8.00;;
67500;SDS011;54349;52.528;19.760;2022-12-18T16:29:55;12.50;;;7.50;;
67500;SDS011;54349;52.528;19.760;2022-12-18T16:32:23;13.00;;;8.00;;
67500;SDS011;54349;52.528;19.760;2022-12-18T16:34:52;14.90;;;8.40;;
67500;SDS011;54349;52.528;19.760;2022-12-18T16:37:20;12.20;;;7.70;;
67500;SDS011;54349;52.528;19.760;2022-12-18T16:39:48;13.80;;;8.20;;
67500;SDS011;54349;52.528;19.760;2022-12-18T16:42:18;13.10;;;8.00;;
67500;SDS011;54349;52.528;19.760;2022-12-18T16:44:49;12.70;;;7.80;;
67500;SDS011;54349;52.528;19.760;2022-12-18T16:47:18;13.50;;;7.70;;
67500;SDS011;54349;52.528;19.760;2022-12-18T16:49:47;14.30;;;8.60;;
67500;SDS011;54349;52.528;19.760;2022-12-18T16:52:19;13.00;;;8.60;;
67500;SDS011;54349;52.528;19.760;2022-12-18T16:54:47;14.20;;;9.10;;
67500;SDS011;54349;52.528;19.760;2022-12-18T16:57:18;14.50;;;9.10;;
67500;SDS011;54349;52.528;19.760;2022-12-18T16:59:52;17.40;;;9.40;;
67500;SDS011;54349;52.528;19.760;2022-12-18T17:02:23;15.70;;;8.90;;